Harrogate, United Kingdom
Current Conditions -  °F | °C
As of 11:20 AM on Tuesday 21 Oct 2014 (Local Time) from EGNM Reporting Station
Scattered Clouds Scattered Clouds  
Wind Chill: 35°   Ceiling: Unl
Heat Index: 45°   Visibility: 6mi
Dew Point: 39°   Wind: 25mph
Humidity: 81%   Direction: 280°W
Pressure: 29.47"   Gusts: 38mph
Location:  53.99°N, 1.54°W
Report Text: EGNM 211020Z 28022G33KT 9999 FEW012CB SCT025 07/04 Q0998
Loading
Personal Weather Stations






























Interactive Weather Map
Tropical Storm Tracking
New forecast layout! Learn more

10-Day Weather Forecast

Advertisements
Track Severe Weather on mobile